Time;durP1;ratioP1;P1;durP2;ratioP2;P2;SDS_P1;SDS_P2;PMS_P1;PMS_P2;Temp;Humidity;BMP_temperature;BMP_pressure;BME280_temperature;BME280_humidity;BME280_pressure;Samples;Min_cycle;Max_cycle;Signal;HPM_P1;HPM_P2
2021/12/01 00:00:19;;;;;;;22.67;11.83;;;1.60;99.90;;;;;;10433456;28;20049;-60
2021/12/01 00:05:43;;;;;;;21.25;11.95;;;1.60;99.90;;;;;;10420474;28;20490;-60
2021/12/01 00:10:49;;;;;;;20.00;11.27;;;1.60;99.90;;;;;;10419714;28;20115;-61
2021/12/01 00:15:55;;;;;;;23.45;11.75;;;1.60;99.90;;;;;;10419324;28;20116;-61
2021/12/01 00:20:59;;;;;;;25.30;11.73;;;1.60;99.90;;;;;;10418569;28;20057;-61
2021/12/01 00:26:05;;;;;;;19.10;9.43;;;1.60;99.90;;;;;;10418405;28;20057;-61
2021/12/01 00:31:09;;;;;;;19.48;9.65;;;1.60;99.90;;;;;;10419350;28;20053;-61
2021/12/01 00:36:15;;;;;;;14.82;7.07;;;1.60;99.90;;;;;;10418794;28;20379;-61
2021/12/01 00:41:22;;;;;;;13.30;6.03;;;1.60;99.90;;;;;;10418618;28;20064;-62
2021/12/01 00:46:45;;;;;;;18.63;6.55;;;1.60;99.90;;;;;;10417532;28;20053;-62
2021/12/01 00:51:49;;;;;;;12.27;5.68;;;1.60;99.90;;;;;;10417732;28;20111;-61
2021/12/01 00:56:54;;;;;;;12.93;5.60;;;1.60;99.90;;;;;;10418869;28;20483;-61
2021/12/01 01:01:59;;;;;;;13.60;5.10;;;1.50;99.90;;;;;;10458951;28;20053;-61
2021/12/01 01:07:04;;;;;;;8.52;3.78;;;1.60;99.90;;;;;;10459766;28;20049;-60
2021/12/01 01:17:37;;;;;;;9.82;3.92;;;1.60;99.90;;;;;;10458043;28;20045;-60
2021/12/01 01:22:43;;;;;;;8.20;4.13;;;1.50;99.90;;;;;;10457678;28;20049;-61
2021/12/01 01:27:48;;;;;;;9.07;4.05;;;1.40;99.90;;;;;;10457253;28;20409;-61
2021/12/01 01:32:54;;;;;;;7.85;3.97;;;1.50;99.90;;;;;;10459135;28;20414;-61
2021/12/01 01:37:59;;;;;;;10.43;4.75;;;1.40;99.90;;;;;;10456831;28;20048;-62
2021/12/01 01:43:07;;;;;;;9.35;4.63;;;1.40;99.90;;;;;;10456651;28;20056;-61
2021/12/01 01:48:14;;;;;;;10.00;3.90;;;1.40;99.90;;;;;;10457494;28;20041;-62
2021/12/01 01:53:26;;;;;;;8.13;3.70;;;1.40;99.90;;;;;;10457122;28;20094;-62
2021/12/01 01:58:31;;;;;;;14.82;6.07;;;1.30;99.90;;;;;;10456921;28;20551;-61
2021/12/01 02:03:44;;;;;;;30.65;10.85;;;1.40;99.90;;;;;;10439175;28;20053;-61
2021/12/01 02:08:54;;;;;;;44.92;13.45;;;1.40;99.90;;;;;;10456610;28;20045;-61
2021/12/01 02:13:58;;;;;;;;;;;1.30;99.90;;;;;;10456483;28;20049;-60
2021/12/01 02:19:04;;;;;;;13.85;5.57;;;1.20;99.90;;;;;;10456493;28;19921;-61
2021/12/01 02:24:12;;;;;;;18.92;7.15;;;1.10;99.90;;;;;;10456082;28;20483;-61
2021/12/01 02:29:21;;;;;;;19.42;6.53;;;0.90;99.90;;;;;;10455613;28;20107;-60
2021/12/01 02:34:26;;;;;;;13.00;4.80;;;0.50;99.90;;;;;;10455697;28;20207;-60
2021/12/01 02:39:31;;;;;;;8.10;3.55;;;0.40;99.90;;;;;;10454806;28;20057;-60
2021/12/01 02:44:36;;;;;;;8.85;4.05;;;0.30;99.90;;;;;;10455480;28;20052;-60
2021/12/01 02:49:41;;;;;;;8.82;4.18;;;0.20;99.90;;;;;;10454482;28;20091;-61
2021/12/01 02:54:49;;;;;;;10.98;4.63;;;0.10;99.90;;;;;;10461927;28;20053;-62
2021/12/01 02:59:57;;;;;;;12.00;4.45;;;-0.10;99.90;;;;;;10463847;28;20048;-61
2021/12/01 03:05:02;;;;;;;53.75;16.23;;;-0.10;99.90;;;;;;10463563;28;20041;-61
2021/12/01 03:10:08;;;;;;;41.05;12.68;;;-0.30;99.90;;;;;;10463834;28;20106;-61
2021/12/01 03:15:16;;;;;;;19.02;6.75;;;-0.40;99.90;;;;;;10462419;28;20056;-61
2021/12/01 03:20:22;;;;;;;11.45;4.38;;;-0.40;99.90;;;;;;10462751;28;20067;-61
2021/12/01 03:25:29;;;;;;;10.23;5.18;;;-0.50;99.90;;;;;;10462822;28;20052;-61
2021/12/01 03:30:42;;;;;;;85.25;21.65;;;-0.60;99.90;;;;;;10462547;28;20110;-61
2021/12/01 03:35:53;;;;;;;77.72;18.55;;;-0.70;99.90;;;;;;10462717;28;20454;-61
2021/12/01 03:40:58;;;;;;;125.80;27.90;;;-0.70;99.90;;;;;;10462621;28;20048;-61
2021/12/01 03:46:03;;;;;;;82.60;22.15;;;-0.80;99.90;;;;;;10461567;28;20049;-61
2021/12/01 03:51:08;;;;;;;49.67;14.82;;;-0.80;99.90;;;;;;10462911;28;20102;-61
2021/12/01 03:56:13;;;;;;;94.50;24.65;;;-0.90;99.90;;;;;;10461045;28;20053;-61
2021/12/01 04:01:18;;;;;;;360.20;110.15;;;-1.00;99.90;;;;;;10460212;28;20104;-61
2021/12/01 04:06:24;;;;;;;128.82;35.05;;;-1.10;99.90;;;;;;10461451;28;20063;-61
2021/12/01 04:11:29;;;;;;;22.92;7.50;;;-1.10;99.90;;;;;;10461693;28;20045;-61
2021/12/01 04:16:34;;;;;;;13.57;5.43;;;-1.10;99.90;;;;;;10460768;28;20049;-61
2021/12/01 04:21:40;;;;;;;24.38;9.88;;;-0.90;99.90;;;;;;10460813;28;20041;-61
2021/12/01 04:26:44;;;;;;;40.50;13.52;;;-1.00;99.90;;;;;;10461242;28;20099;-61
2021/12/01 04:31:50;;;;;;;66.05;18.88;;;-1.10;99.90;;;;;;10460244;28;20044;-61
2021/12/01 04:37:01;;;;;;;82.75;27.85;;;-1.20;99.90;;;;;;10460514;28;20114;-61
2021/12/01 04:42:10;;;;;;;30.52;11.15;;;-1.20;99.90;;;;;;10459499;28;20098;-62
2021/12/01 04:47:18;;;;;;;35.83;12.90;;;-1.20;99.90;;;;;;10459307;28;20079;-62
2021/12/01 04:52:23;;;;;;;67.82;18.08;;;-1.30;99.90;;;;;;10459502;28;20173;-62
2021/12/01 04:57:31;;;;;;;36.85;12.48;;;-1.30;99.90;;;;;;10459495;28;20556;-61
2021/12/01 05:02:39;;;;;;;95.55;33.95;;;-1.20;99.90;;;;;;10440518;28;20053;-62
2021/12/01 05:07:47;;;;;;;56.97;20.40;;;-1.20;99.90;;;;;;10458890;28;20103;-62
2021/12/01 05:12:53;;;;;;;73.05;20.17;;;-1.30;99.90;;;;;;10441045;28;20048;-61
2021/12/01 05:18:00;;;;;;;31.40;9.45;;;-1.30;99.90;;;;;;10458649;28;20041;-61
2021/12/01 05:23:08;;;;;;;37.78;13.52;;;-1.20;99.90;;;;;;10458588;28;20448;-61
2021/12/01 05:28:13;;;;;;;19.30;9.15;;;-1.00;99.90;;;;;;10457486;28;20057;-61
2021/12/01 05:33:18;;;;;;;26.63;11.52;;;-0.90;99.90;;;;;;10458308;28;20082;-61
2021/12/01 05:38:24;;;;;;;24.38;9.45;;;-0.80;99.90;;;;;;10439719;28;20057;-62
2021/12/01 05:43:30;;;;;;;24.65;10.18;;;-0.80;99.90;;;;;;10456655;28;20448;-62
2021/12/01 05:48:35;;;;;;;38.88;13.27;;;-0.80;99.90;;;;;;10457823;28;20037;-62
2021/12/01 05:53:43;;;;;;;27.25;10.35;;;-0.70;99.90;;;;;;10459400;28;20082;-61
2021/12/01 05:58:48;;;;;;;56.00;18.70;;;-0.40;99.90;;;;;;10456550;28;20090;-61
2021/12/01 06:03:53;;;;;;;31.83;11.88;;;-0.20;99.90;;;;;;10456633;28;20502;-61
2021/12/01 06:08:57;;;;;;;81.53;18.88;;;-0.10;99.90;;;;;;10455995;28;20091;-62
2021/12/01 06:14:02;;;;;;;48.28;11.93;;;0.00;99.90;;;;;;10456489;28;20442;-61
2021/12/01 06:19:07;;;;;;;46.47;13.55;;;0.00;99.90;;;;;;10457076;28;20053;-61
2021/12/01 06:24:16;;;;;;;33.17;13.13;;;0.10;99.90;;;;;;10438812;28;20045;-61
2021/12/01 06:29:24;;;;;;;34.97;12.55;;;0.20;99.90;;;;;;10455974;28;20049;-62
2021/12/01 06:34:29;;;;;;;35.10;13.68;;;0.20;99.90;;;;;;10456752;28;20045;-62
2021/12/01 06:39:37;;;;;;;49.70;18.30;;;0.30;99.90;;;;;;10456092;28;20099;-62
2021/12/01 06:44:43;;;;;;;34.08;14.55;;;0.40;99.90;;;;;;10456001;28;20067;-61
2021/12/01 06:49:48;;;;;;;33.60;15.63;;;0.40;99.90;;;;;;10455272;28;20069;-61
2021/12/01 06:54:54;;;;;;;33.03;14.25;;;0.50;99.90;;;;;;10455757;28;20049;-61
2021/12/01 07:00:06;;;;;;;48.08;17.10;;;0.60;99.90;;;;;;10452442;28;20069;-62
2021/12/01 08:32:08;;;;;;;39.95;17.58;;;1.20;99.90;;;;;;10221386;29;20055;-60
2021/12/01 08:37:15;;;;;;;48.80;17.80;;;1.20;99.90;;;;;;10237384;29;20114;-60
2021/12/01 08:42:26;;;;;;;33.50;15.73;;;1.20;99.90;;;;;;10252701;29;20127;-60
2021/12/01 08:47:32;;;;;;;40.35;17.23;;;1.20;99.90;;;;;;10251691;28;20055;-61
2021/12/01 08:52:37;;;;;;;40.60;17.38;;;1.20;99.90;;;;;;10253219;29;20067;-61
2021/12/01 08:57:42;;;;;;;41.85;17.08;;;1.20;99.90;;;;;;10339567;28;20380;-61
2021/12/01 09:02:47;;;;;;;53.55;23.52;;;1.30;99.90;;;;;;10378940;28;20069;-61
2021/12/01 09:07:52;;;;;;;34.28;16.33;;;1.30;99.90;;;;;;10458856;28;20383;-61
2021/12/01 09:12:58;;;;;;;35.58;16.88;;;1.40;99.90;;;;;;10458032;28;20075;-61
2021/12/01 09:18:03;;;;;;;46.70;21.63;;;1.30;99.90;;;;;;10459850;28;20563;-61
2021/12/01 09:23:07;;;;;;;37.45;18.50;;;1.40;99.90;;;;;;10458166;28;20041;-61
2021/12/01 09:28:19;;;;;;;32.55;17.23;;;1.50;99.90;;;;;;10457665;28;20045;-61
2021/12/01 09:33:24;;;;;;;38.67;17.83;;;1.70;99.90;;;;;;10457939;28;20075;-61
2021/12/01 09:38:30;;;;;;;39.25;17.67;;;1.90;99.90;;;;;;10457658;28;20041;-61
2021/12/01 09:43:35;;;;;;;37.97;18.00;;;1.90;99.90;;;;;;10457568;28;20111;-62
2021/12/01 09:48:42;;;;;;;36.00;17.58;;;2.00;99.90;;;;;;10456306;28;20057;-61
2021/12/01 09:53:49;;;;;;;46.92;19.70;;;2.00;99.90;;;;;;10458037;28;20052;-61
2021/12/01 09:58:54;;;;;;;35.00;17.73;;;2.00;99.90;;;;;;10456506;28;20041;-61
2021/12/01 10:03:59;;;;;;;41.88;20.35;;;2.00;99.90;;;;;;10456562;28;20114;-61
2021/12/01 10:09:07;;;;;;;51.58;20.60;;;2.00;99.90;;;;;;10439031;28;20449;-61
2021/12/01 10:14:18;;;;;;;54.42;21.58;;;2.00;99.90;;;;;;10457443;28;20048;-61
2021/12/01 10:19:28;;;;;;;45.17;18.23;;;2.00;99.90;;;;;;10456013;28;20110;-61
2021/12/01 10:24:36;;;;;;;47.63;17.58;;;2.00;99.90;;;;;;10456983;28;20086;-61
2021/12/01 10:29:50;;;;;;;30.35;14.63;;;2.00;99.90;;;;;;10456368;28;20444;-61
2021/12/01 10:35:00;;;;;;;50.22;18.17;;;1.90;99.90;;;;;;10455513;28;20057;-61
2021/12/01 10:40:23;;;;;;;;;;;1.90;99.90;;;;;;10456543;28;20114;-61
2021/12/01 10:45:53;;;;;;;50.10;18.00;;;1.90;99.90;;;;;;10456331;28;19944;-61
2021/12/01 10:50:58;;;;;;;42.92;17.13;;;1.80;99.90;;;;;;10454254;28;20118;-61
2021/12/01 10:56:05;;;;;;;90.57;25.58;;;1.60;99.90;;;;;;10455985;28;20481;-61
2021/12/01 11:01:22;;;;;;;43.05;19.27;;;1.60;99.90;;;;;;10455644;28;20045;-61
2021/12/01 11:06:33;;;;;;;60.75;22.80;;;1.50;99.90;;;;;;10455844;28;20053;-61
2021/12/01 11:11:42;;;;;;;84.32;25.83;;;1.50;99.90;;;;;;10459708;28;20041;-60
2021/12/01 11:17:03;;;;;;;62.10;20.65;;;1.50;99.90;;;;;;10463291;28;20056;-61
2021/12/01 11:22:30;;;;;;;68.47;23.08;;;1.50;99.90;;;;;;10462972;28;20493;-60
2021/12/01 11:27:35;;;;;;;84.60;31.85;;;1.50;99.90;;;;;;10462847;28;20037;-60
2021/12/01 11:32:40;;;;;;;55.92;19.88;;;1.40;99.90;;;;;;10462820;28;20053;-61
2021/12/01 11:37:47;;;;;;;49.97;18.70;;;1.30;99.90;;;;;;10460316;28;20053;-61
2021/12/01 11:42:52;;;;;;;115.70;31.95;;;1.30;99.90;;;;;;10436337;28;20046;-60
2021/12/01 11:47:57;;;;;;;52.25;21.17;;;1.20;99.90;;;;;;10445114;28;20041;-60
2021/12/01 11:53:24;;;;;;;57.92;19.58;;;1.20;99.90;;;;;;10461362;28;20049;-61
2021/12/01 11:58:41;;;;;;;59.00;23.60;;;1.20;99.90;;;;;;10461680;28;20098;-60
2021/12/01 12:03:46;;;;;;;52.28;21.40;;;1.20;99.90;;;;;;10460606;28;20098;-60
2021/12/01 12:08:54;;;;;;;64.10;24.85;;;1.10;99.90;;;;;;10461864;28;20045;-60
2021/12/01 12:14:07;;;;;;;70.32;28.73;;;1.00;99.90;;;;;;10461671;28;20044;-61
2021/12/01 12:19:12;;;;;;;44.72;21.55;;;1.00;99.90;;;;;;10460942;28;20037;-60
2021/12/01 12:24:23;;;;;;;70.22;25.60;;;1.00;99.90;;;;;;10459728;28;20037;-61
2021/12/01 12:29:29;;;;;;;45.63;20.67;;;1.00;99.90;;;;;;10460859;28;20037;-61
2021/12/01 12:34:49;;;;;;;51.13;21.77;;;1.00;99.90;;;;;;10460312;28;20382;-60
2021/12/01 12:39:56;;;;;;;75.82;31.98;;;0.90;99.90;;;;;;10460067;28;20449;-60
2021/12/01 12:45:01;;;;;;;52.97;21.08;;;0.90;99.90;;;;;;10459851;28;20041;-60
2021/12/01 12:50:17;;;;;;;53.67;23.30;;;0.90;99.90;;;;;;10459081;28;20374;-60
2021/12/01 12:55:22;;;;;;;54.92;24.27;;;0.90;99.90;;;;;;10459520;28;20044;-60
2021/12/01 13:00:32;;;;;;;50.30;22.48;;;0.90;99.90;;;;;;10459236;28;20472;-60
2021/12/01 13:05:39;;;;;;;43.58;21.05;;;0.90;99.90;;;;;;10458733;28;20098;-60
2021/12/01 13:10:44;;;;;;;45.55;19.95;;;0.90;99.90;;;;;;10458134;28;20053;-60
2021/12/01 13:15:52;;;;;;;44.95;22.02;;;0.90;99.90;;;;;;10457946;28;20053;-60
2021/12/01 13:21:00;;;;;;;39.30;19.52;;;0.90;99.90;;;;;;10458488;28;20049;-61
2021/12/01 13:26:07;;;;;;;45.28;21.73;;;0.90;99.90;;;;;;10439954;28;20045;-60
2021/12/01 13:31:14;;;;;;;51.08;22.02;;;0.90;99.90;;;;;;10458061;28;20037;-60
2021/12/01 13:36:20;;;;;;;47.58;21.55;;;0.90;99.90;;;;;;10458989;28;20440;-60
2021/12/01 13:41:31;;;;;;;45.35;22.65;;;0.90;99.90;;;;;;10440561;28;20061;-60
2021/12/01 13:46:36;;;;;;;51.67;24.25;;;0.90;99.90;;;;;;10457569;28;20090;-60
2021/12/01 13:51:46;;;;;;;42.83;21.30;;;0.90;99.90;;;;;;10458718;28;20090;-60
2021/12/01 13:57:04;;;;;;;46.38;21.17;;;1.00;99.90;;;;;;10457328;28;20095;-60
2021/12/01 14:02:10;;;;;;;41.22;20.88;;;1.00;99.90;;;;;;10457257;28;20057;-60
2021/12/01 14:07:15;;;;;;;50.42;24.20;;;1.00;99.90;;;;;;10457446;28;20064;-60
2021/12/01 14:12:21;;;;;;;47.75;22.88;;;1.00;99.90;;;;;;10456693;28;20096;-60
2021/12/01 14:17:26;;;;;;;49.78;23.92;;;1.00;99.90;;;;;;10457108;28;20091;-60
2021/12/01 14:22:33;;;;;;;53.63;25.33;;;1.00;99.90;;;;;;10455799;28;20071;-61
2021/12/01 14:27:38;;;;;;;57.20;27.50;;;1.10;99.90;;;;;;10456785;28;20087;-60
2021/12/01 14:32:45;;;;;;;65.20;32.15;;;1.10;99.90;;;;;;10456354;28;20045;-60
2021/12/01 14:37:50;;;;;;;59.88;29.40;;;1.20;99.90;;;;;;10455694;28;20083;-60
2021/12/01 14:42:57;;;;;;;65.10;31.95;;;1.20;99.90;;;;;;10455983;28;20045;-61
2021/12/01 14:48:12;;;;;;;63.70;30.25;;;1.30;99.90;;;;;;10462383;28;20185;-61
2021/12/01 14:53:18;;;;;;;67.72;36.75;;;1.30;99.90;;;;;;10464223;28;20470;-61
2021/12/01 14:58:24;;;;;;;75.65;37.00;;;1.30;99.90;;;;;;10464051;28;20041;-61
2021/12/01 15:03:40;;;;;;;72.88;37.58;;;1.40;99.90;;;;;;10462971;28;20053;-61
2021/12/01 15:08:47;;;;;;;82.82;39.00;;;1.40;99.90;;;;;;10459130;28;20401;-61
2021/12/01 15:13:53;;;;;;;75.95;38.65;;;1.50;99.90;;;;;;10463187;28;20044;-61
2021/12/01 15:19:00;;;;;;;71.85;35.42;;;1.60;99.90;;;;;;10462574;28;20049;-60
2021/12/01 15:24:06;;;;;;;73.03;32.50;;;1.70;99.90;;;;;;10462045;28;20044;-61
2021/12/01 15:29:14;;;;;;;71.68;32.25;;;1.80;99.90;;;;;;10462359;28;20080;-61
2021/12/01 15:34:34;;;;;;;73.65;35.38;;;1.90;99.90;;;;;;10462041;28;20512;-61
2021/12/01 15:39:39;;;;;;;63.15;32.28;;;1.90;99.90;;;;;;10462814;28;20053;-61
2021/12/01 15:44:43;;;;;;;62.88;32.08;;;2.10;99.90;;;;;;10462125;28;20489;-61
2021/12/01 15:49:48;;;;;;;62.92;30.00;;;2.30;99.90;;;;;;10461973;28;20053;-60
2021/12/01 15:54:53;;;;;;;62.40;31.10;;;2.40;99.90;;;;;;10463083;28;20041;-61
2021/12/01 15:59:58;;;;;;;66.75;35.00;;;2.50;99.90;;;;;;10459878;28;20053;-60
2021/12/01 16:05:03;;;;;;;66.70;34.45;;;2.60;99.90;;;;;;10461428;28;20486;-61
2021/12/01 16:10:08;;;;;;;57.95;32.00;;;2.70;99.90;;;;;;10461221;28;20041;-61
2021/12/01 16:15:12;;;;;;;73.32;32.47;;;2.80;99.90;;;;;;10460986;28;20099;-61
2021/12/01 16:20:18;;;;;;;115.60;46.17;;;3.00;99.90;;;;;;10460910;28;20053;-61
2021/12/01 16:25:23;;;;;;;60.22;28.00;;;3.10;99.90;;;;;;10460624;28;20045;-61
2021/12/01 16:30:32;;;;;;;50.25;26.90;;;3.20;99.90;;;;;;10460523;28;20485;-61
2021/12/01 16:35:39;;;;;;;62.58;30.50;;;3.20;99.90;;;;;;10459527;28;20071;-60
2021/12/01 16:40:46;;;;;;;70.03;30.33;;;3.40;99.90;;;;;;10459711;28;20049;-60
2021/12/01 16:45:56;;;;;;;67.30;37.78;;;3.50;99.90;;;;;;10457695;28;20102;-61
2021/12/01 16:51:02;;;;;;;63.42;34.85;;;3.50;99.90;;;;;;10458801;28;20053;-61
2021/12/01 16:56:07;;;;;;;61.45;31.42;;;3.70;99.90;;;;;;10459146;28;20056;-61
2021/12/01 17:01:12;;;;;;;64.30;31.92;;;3.80;99.90;;;;;;10459280;28;20426;-60
2021/12/01 17:06:25;;;;;;;52.47;28.58;;;3.90;99.90;;;;;;10444702;28;20088;-60
2021/12/01 17:11:31;;;;;;;47.72;26.50;;;4.00;99.90;;;;;;10427436;28;20045;-60
2021/12/01 17:16:36;;;;;;;51.30;25.88;;;4.10;99.90;;;;;;10417015;28;20402;-60
2021/12/01 17:21:41;;;;;;;40.92;24.13;;;4.10;99.90;;;;;;10401001;28;20544;-60
2021/12/01 17:26:46;;;;;;;48.45;25.17;;;4.20;99.90;;;;;;10417054;28;20041;-60
2021/12/01 17:32:03;;;;;;;49.03;27.63;;;4.30;99.90;;;;;;10416497;28;20050;-60
2021/12/01 17:37:08;;;;;;;50.88;24.42;;;4.30;99.90;;;;;;10416244;28;20107;-60
2021/12/01 17:42:14;;;;;;;44.53;23.35;;;4.40;99.90;;;;;;10423799;28;20448;-60
2021/12/01 17:47:21;;;;;;;50.92;24.65;;;4.40;99.90;;;;;;10416735;28;20075;-60
2021/12/01 17:52:26;;;;;;;40.50;22.83;;;4.60;99.90;;;;;;10416214;28;20053;-61
2021/12/01 17:57:31;;;;;;;40.10;22.45;;;4.60;99.90;;;;;;10415227;28;20449;-61
2021/12/01 18:02:36;;;;;;;39.35;23.73;;;4.60;99.90;;;;;;10415156;28;20057;-60
2021/12/01 18:07:41;;;;;;;52.03;25.85;;;4.60;99.90;;;;;;10415262;28;20046;-60
2021/12/01 18:12:45;;;;;;;53.33;26.60;;;4.60;99.90;;;;;;10415598;28;20071;-60
2021/12/01 18:17:50;;;;;;;38.95;21.73;;;4.70;99.90;;;;;;10415838;28;20483;-62
2021/12/01 18:22:55;;;;;;;59.17;24.50;;;4.80;99.90;;;;;;10414650;28;20449;-60
2021/12/01 18:28:01;;;;;;;85.90;37.20;;;4.80;99.90;;;;;;10415676;28;20050;-60
2021/12/01 18:33:06;;;;;;;136.38;41.03;;;4.80;99.90;;;;;;10414504;28;20402;-60
2021/12/01 18:38:11;;;;;;;83.90;30.80;;;4.90;99.90;;;;;;10414974;28;20054;-60
2021/12/01 18:43:16;;;;;;;64.10;27.63;;;4.90;99.90;;;;;;10414835;28;20060;-60
2021/12/01 18:48:21;;;;;;;42.95;24.45;;;5.00;99.90;;;;;;10414383;28;20103;-60
2021/12/01 18:53:26;;;;;;;41.00;23.00;;;5.00;99.90;;;;;;10415007;28;20049;-60
2021/12/01 18:58:31;;;;;;;40.75;21.92;;;5.00;99.90;;;;;;10414734;28;20555;-60
2021/12/01 19:03:36;;;;;;;44.42;24.70;;;5.10;99.90;;;;;;10414891;28;20050;-60
2021/12/01 19:08:49;;;;;;;42.08;22.13;;;5.10;99.90;;;;;;10413900;28;20053;-60
2021/12/01 19:13:54;;;;;;;37.67;21.60;;;5.20;99.90;;;;;;10414413;28;20060;-61
2021/12/01 19:18:59;;;;;;;147.48;43.53;;;5.20;99.90;;;;;;10413698;28;20453;-61
2021/12/01 19:24:05;;;;;;;128.25;41.60;;;5.20;99.90;;;;;;10413504;28;20046;-61
2021/12/01 19:29:13;;;;;;;37.25;20.85;;;5.20;99.90;;;;;;10413469;28;20053;-61
2021/12/01 19:34:17;;;;;;;55.33;28.95;;;5.20;99.90;;;;;;10420942;28;20046;-61
2021/12/01 19:39:23;;;;;;;115.03;46.50;;;5.20;99.90;;;;;;10421143;28;20100;-61
2021/12/01 19:44:29;;;;;;;64.85;27.55;;;5.30;99.90;;;;;;10421120;28;20107;-61
2021/12/01 19:49:35;;;;;;;72.35;29.15;;;5.30;99.90;;;;;;10421529;28;20049;-61
2021/12/01 19:54:41;;;;;;;53.53;23.45;;;5.40;99.90;;;;;;10421012;28;20103;-61
2021/12/01 19:59:46;;;;;;;88.65;32.97;;;5.40;99.90;;;;;;10420499;28;20041;-61
2021/12/01 20:04:51;;;;;;;31.77;18.40;;;5.50;99.90;;;;;;10420039;28;20461;-60
2021/12/01 20:09:57;;;;;;;35.30;18.70;;;5.50;99.90;;;;;;10419884;28;20071;-60
2021/12/01 20:15:20;;;;;;;57.10;25.52;;;5.40;99.90;;;;;;10419131;28;20065;-60
2021/12/01 20:20:26;;;;;;;83.55;30.98;;;5.50;99.90;;;;;;10420635;28;20095;-60
2021/12/01 20:25:35;;;;;;;51.85;26.17;;;5.50;99.90;;;;;;10419103;28;20103;-60
2021/12/01 20:30:40;;;;;;;27.33;15.13;;;5.50;99.90;;;;;;10419260;28;20046;-60
2021/12/01 20:35:47;;;;;;;27.20;15.35;;;5.60;99.90;;;;;;10418640;28;20049;-60
2021/12/01 20:40:53;;;;;;;30.90;16.05;;;5.60;99.90;;;;;;10418755;28;20049;-61
2021/12/01 20:57:06;;;;;;;29.42;16.00;;;5.70;99.90;;;;;;10417909;28;20049;-61
2021/12/01 21:02:11;;;;;;;43.58;19.70;;;5.70;99.90;;;;;;10445976;28;20049;-62
2021/12/01 21:07:16;;;;;;;33.15;16.80;;;5.70;99.90;;;;;;10458976;28;20075;-62
2021/12/01 21:12:24;;;;;;;29.95;15.57;;;5.70;99.90;;;;;;10458142;28;20103;-61
2021/12/01 21:17:31;;;;;;;48.58;22.20;;;5.80;99.90;;;;;;10458508;28;20063;-62
2021/12/01 21:22:38;;;;;;;34.45;16.20;;;5.80;99.90;;;;;;10457808;28;20118;-62
2021/12/01 21:27:45;;;;;;;34.92;16.73;;;5.80;99.90;;;;;;10470836;28;20041;-62
2021/12/01 21:32:51;;;;;;;20.25;13.75;;;5.80;99.90;;;;;;10458221;28;20394;-63
2021/12/01 21:37:56;;;;;;;25.33;13.98;;;5.80;99.90;;;;;;10457931;28;20048;-63
2021/12/01 21:43:01;;;;;;;31.55;17.15;;;5.80;99.90;;;;;;10457105;28;20501;-62
2021/12/01 21:48:06;;;;;;;21.38;13.27;;;5.90;99.90;;;;;;10456550;28;20045;-62
2021/12/01 21:53:11;;;;;;;21.55;13.05;;;5.90;99.90;;;;;;10456689;28;20049;-62
2021/12/01 21:58:16;;;;;;;23.67;13.35;;;5.90;99.90;;;;;;10453362;28;20448;-62
2021/12/01 22:03:21;;;;;;;24.88;12.13;;;5.90;99.90;;;;;;10456471;28;20053;-62
2021/12/01 22:08:27;;;;;;;26.33;13.90;;;6.00;99.90;;;;;;10457317;28;20059;-61
2021/12/01 22:13:35;;;;;;;26.40;14.52;;;6.00;99.90;;;;;;10456580;28;20103;-61
2021/12/01 22:18:46;;;;;;;20.50;12.85;;;6.00;99.90;;;;;;10456772;28;20509;-61
2021/12/01 22:24:06;;;;;;;19.08;12.35;;;6.00;99.90;;;;;;10456870;28;20543;-62
2021/12/01 22:29:12;;;;;;;22.97;12.77;;;6.10;99.90;;;;;;10456528;28;20045;-62
2021/12/01 22:34:20;;;;;;;19.65;11.50;;;6.10;99.90;;;;;;10456488;28;20122;-62
2021/12/01 22:39:26;;;;;;;20.60;11.57;;;6.20;99.90;;;;;;10455892;28;20056;-62
2021/12/01 22:44:34;;;;;;;18.60;11.43;;;6.20;99.90;;;;;;10455473;28;20050;-63
2021/12/01 22:49:41;;;;;;;18.88;9.10;;;6.20;99.90;;;;;;10456659;28;20044;-62
2021/12/01 22:54:45;;;;;;;17.98;10.95;;;6.20;99.90;;;;;;10455012;28;20049;-62
2021/12/01 22:59:56;;;;;;;15.43;9.63;;;6.20;99.90;;;;;;10454079;28;20049;-62
2021/12/01 23:05:01;;;;;;;16.08;9.93;;;6.20;99.90;;;;;;10455813;28;20049;-62
2021/12/01 23:10:06;;;;;;;15.18;9.45;;;6.10;99.90;;;;;;10463871;28;20071;-63
2021/12/01 23:15:14;;;;;;;14.50;9.70;;;6.20;99.90;;;;;;10464218;28;20045;-63
2021/12/01 23:20:19;;;;;;;16.40;9.35;;;6.20;99.90;;;;;;10463899;28;20057;-63
2021/12/01 23:30:46;;;;;;;15.48;8.85;;;6.40;99.90;;;;;;10462893;28;20037;-61
2021/12/01 23:35:50;;;;;;;13.57;8.48;;;6.40;99.90;;;;;;10461337;28;20098;-62
2021/12/01 23:40:55;;;;;;;13.15;7.55;;;6.50;99.90;;;;;;10440874;28;20045;-63
2021/12/01 23:51:19;;;;;;;8.90;6.55;;;6.60;99.90;;;;;;10458587;28;20053;-62
2021/12/01 23:56:25;;;;;;;10.20;5.47;;;6.60;99.90;;;;;;10461985;28;20090;-62
